createdAt,value
2018-01-25T10:07:22.369Z,64.00
2018-01-25T10:08:22.670Z,100.00
2018-01-25T10:10:16.744Z,104.00
2018-01-25T10:12:30.440Z,104.00
2018-01-25T10:13:30.630Z,100.00
2018-01-25T10:15:24.273Z,104.00
2018-01-25T10:16:24.570Z,108.00
2018-01-25T10:18:51.045Z,68.00
2018-01-25T10:19:51.334Z,104.00
2018-01-25T10:21:45.409Z,120.00
2018-01-25T10:22:45.703Z,120.00
2018-01-25T10:25:00.018Z,92.00
2018-01-25T10:25:39.176Z,72.00
2018-01-25T10:27:32.681Z,80.00
2018-01-25T10:28:33.016Z,80.00
2018-01-25T10:30:29.246Z,84.00
2018-01-25T10:51:49.941Z,176.00
2018-01-25T10:52:49.963Z,184.00
2018-01-25T10:54:43.003Z,180.00
2018-01-25T10:55:43.016Z,128.00
2018-01-25T10:58:08.803Z,24.00
2018-01-25T10:59:08.832Z,20.00
2018-01-25T11:01:01.806Z,20.00
2018-01-25T11:02:01.838Z,20.00
2018-01-25T11:04:55.639Z,20.00
2018-01-25T11:08:03.311Z,12.00
2018-01-25T11:09:03.350Z,16.00
2018-01-25T11:10:56.291Z,16.00
2018-01-25T11:11:56.325Z,16.00
2018-01-25T11:13:49.686Z,16.00
2018-01-25T11:14:49.792Z,12.00
2018-01-25T11:16:42.285Z,16.00
2018-01-25T11:17:42.362Z,16.00
2018-01-25T11:19:35.334Z,16.00
2018-01-25T11:20:35.359Z,16.00
2018-01-25T11:22:28.301Z,16.00
2018-01-25T11:23:28.370Z,16.00
2018-01-25T11:28:15.064Z,20.00
2018-01-25T11:29:15.129Z,20.00
2018-01-25T11:31:08.916Z,16.00
2018-01-25T11:32:08.922Z,20.00
2018-01-25T11:34:02.190Z,20.00
2018-01-25T11:35:02.218Z,24.00
2018-01-25T11:36:55.802Z,20.00
2018-01-25T11:39:48.654Z,20.00
2018-01-25T11:40:48.736Z,20.00
2018-01-25T11:42:41.992Z,20.00
2018-01-25T11:43:42.029Z,16.00
2018-01-25T11:45:35.467Z,16.00
2018-01-25T11:46:35.521Z,12.00
2018-01-25T11:48:29.262Z,12.00
2018-01-25T11:53:53.640Z,20.00
2018-01-25T11:54:53.683Z,16.00
2018-01-25T11:57:47.161Z,772.00
2018-01-25T11:59:40.407Z,768.00
2018-01-25T12:00:40.456Z,748.00
2018-01-25T12:02:33.682Z,768.00
2018-01-25T12:03:33.743Z,744.00
2018-01-25T12:05:26.708Z,744.00
2018-01-25T12:06:26.755Z,756.00
2018-01-25T12:08:19.670Z,724.00
2018-01-25T12:10:14.093Z,700.00
2018-01-25T12:13:07.110Z,708.00
2018-01-25T12:14:07.175Z,836.00
2018-01-25T12:16:00.892Z,844.00
2018-01-25T12:17:00.938Z,792.00
2018-01-25T12:21:48.185Z,560.00
2018-01-25T12:22:48.244Z,892.00
2018-01-25T12:27:14.425Z,916.00
2018-01-25T12:29:33.322Z,916.00
2018-01-25T12:30:07.676Z,904.00
2018-01-25T12:32:00.622Z,228.00
2018-01-25T12:33:00.840Z,216.00
